Airfield :
LOGIN :

Register | Disclaimer

   EN    FR    IT 

 










Legend :    VFR   Marginal VFR   IFR   Intensive IFR   Very Intensive IFR
Visi :
Ceiling :
>= 8 km
>= 3000ft
5 to 8 km
1000 to 3000 ft
1500m to 5 km
500 to 1000 ft
800 to 1500m
200 to 500 ft
< 800m
< 200 ft
Symbols :   Thunderstorms  Fog  Heavy snow  Heavy precipitations  Wind > 20 kt
SIGMETs :     Misc.  Thunderstorms  Icing  Turbulence  Mountain Waves  Volcanic Ashes






- Airport Elevation : 1234 ft
- IATA code : LUX


ELLX - Luxembourg Findel

CURRENT METAR :
  • 300350Z VRB02KT 1200 R24/P2000N BR SCT002 BKN004 13/13 Q1017 NOSIG

EXPIRED METARs :
  • 300320Z 21004KT 170V270 1000 R24/P2000N -RA BR SCT002 BKN003 13/13 Q1017 NOSIG
  • 300250Z 19005KT 0800 R24/0700V1200U FG BKN001 BKN003 13/13 Q1017 NOSIG
  • 300220Z AUTO 19004KT 170V240 0250 R24/0450V0550N -RA FG VV000 13/13 Q1017 NOSIG
  • 300150Z AUTO 20004KT 160V220 0200 R24/0450V0550N FG VV000 13/13 Q1017 NOSIG
  • 300120Z AUTO 19005KT 160V220 0300 R24/0500N FG VV000 13/13 Q1017 NOSIG

TAF TAF ELLX
Valid from the 29 at 12:00 until the 30 at 18:00 UTC


291100Z 2912/3018 20008KT 6000 BKN010
TEMPO 2912/2916 SCT010
BECMG 2916/2918 3500 BR BKN005
PROB40
TEMPO 2918/3012 0500 RADZ FG BKN002
BECMG 3012/3015 6000 SCT005
ATIS : +352 4798 27300
Met : +352 4798 27010 / 27050



MET'MAP, your aeronautical weather chart ! - Copyright ORBIFLY December 2007 - Disclaimer

ORBIFLY MET'MAP TEAM :

Programming & Development : Alexandra Zaïnal
Concept & original design : Baudouin d'Aumeries
Assistance for programming : Marc-Olivier Méhu
Technical & hardware support : Manuel Goepfert

Contact : metmap@orbifly.com




SOURCES & CREDITS :

   NOAA